createdAt,value
2019-06-27T00:00:45.885Z,7.58
2019-06-27T00:05:41.013Z,8.18
2019-06-27T00:10:36.281Z,8.05
2019-06-27T00:15:31.538Z,6.72
2019-06-27T00:20:26.485Z,6.95
2019-06-27T00:25:21.497Z,7.80
2019-06-27T00:30:16.917Z,6.90
2019-06-27T00:35:11.941Z,6.85
2019-06-27T00:40:07.167Z,6.42
2019-06-27T00:45:02.121Z,6.97
2019-06-27T00:49:56.986Z,7.10
2019-06-27T00:54:52.263Z,7.12
2019-06-27T00:59:47.145Z,6.05
2019-06-27T01:04:42.051Z,6.85
2019-06-27T01:09:36.963Z,6.40
2019-06-27T01:14:31.860Z,5.55
2019-06-27T01:19:26.750Z,6.60
2019-06-27T01:24:21.649Z,6.22
2019-06-27T01:29:16.636Z,6.65
2019-06-27T01:34:13.431Z,6.17
2019-06-27T01:39:08.418Z,6.42
2019-06-27T01:44:03.318Z,6.40
2019-06-27T01:48:58.191Z,6.42
2019-06-27T01:53:53.060Z,6.30
2019-06-27T01:58:47.994Z,6.33
2019-06-27T02:03:42.864Z,5.60
2019-06-27T02:08:37.758Z,5.60
2019-06-27T02:13:32.614Z,5.10
2019-06-27T02:18:27.507Z,4.65
2019-06-27T02:23:22.441Z,5.65
2019-06-27T02:28:17.336Z,5.97
2019-06-27T02:33:13.066Z,5.33
2019-06-27T02:38:08.139Z,5.28
2019-06-27T02:43:02.994Z,5.22
2019-06-27T02:47:58.411Z,4.53
2019-06-27T02:52:53.293Z,3.70
2019-06-27T02:57:48.207Z,3.40
2019-06-27T03:02:43.061Z,3.62
2019-06-27T03:07:37.966Z,3.47
2019-06-27T03:12:32.836Z,4.10
2019-06-27T03:17:27.681Z,3.80
2019-06-27T03:22:22.523Z,3.37
2019-06-27T03:27:17.399Z,3.77
2019-06-27T03:32:12.352Z,3.72
2019-06-27T03:37:07.370Z,3.70
2019-06-27T03:42:02.269Z,3.40
2019-06-27T03:46:57.190Z,3.55
2019-06-27T03:51:52.019Z,3.35
2019-06-27T03:56:46.890Z,3.65
2019-06-27T04:01:41.817Z,3.40
2019-06-27T04:06:36.712Z,3.55
2019-06-27T04:11:31.703Z,3.37
2019-06-27T04:16:26.610Z,3.37
2019-06-27T04:21:21.586Z,4.20
2019-06-27T04:26:16.505Z,3.70
2019-06-27T04:31:13.016Z,3.35
2019-06-27T04:36:09.031Z,3.65
2019-06-27T04:41:03.967Z,3.70
2019-06-27T04:45:58.838Z,3.75
2019-06-27T04:51:02.805Z,3.40
2019-06-27T04:55:57.689Z,3.95
2019-06-27T05:00:52.606Z,3.62
2019-06-27T05:05:47.710Z,3.90
2019-06-27T05:10:42.730Z,3.70
2019-06-27T05:15:54.620Z,3.50
2019-06-27T05:20:49.478Z,4.53
2019-06-27T05:25:44.357Z,4.28
2019-06-27T05:30:39.195Z,4.70
2019-06-27T05:35:34.020Z,4.50
2019-06-27T05:40:28.838Z,4.58
2019-06-27T05:45:23.890Z,4.83
2019-06-27T05:50:18.856Z,4.22
2019-06-27T05:55:13.792Z,4.60
2019-06-27T06:00:26.657Z,4.53
2019-06-27T06:05:07.296Z,4.85
2019-06-27T06:10:03.929Z,4.65
2019-06-27T06:15:00.447Z,3.85
2019-06-27T06:19:55.736Z,4.70
2019-06-27T06:24:50.664Z,4.53
2019-06-27T06:29:45.555Z,4.03
2019-06-27T06:34:40.507Z,4.72
2019-06-27T06:39:35.580Z,4.35
2019-06-27T06:44:30.412Z,4.35
2019-06-27T06:49:25.290Z,4.20
2019-06-27T06:54:20.413Z,4.05
2019-06-27T06:59:16.903Z,4.03
2019-06-27T07:04:13.461Z,3.55
2019-06-27T07:09:10.091Z,4.03
2019-06-27T07:14:07.307Z,4.05
2019-06-27T07:19:03.485Z,3.83
2019-06-27T07:23:59.999Z,3.50
2019-06-27T07:28:55.832Z,4.35
2019-06-27T07:33:52.117Z,3.60
2019-06-27T07:38:48.722Z,4.00
2019-06-27T07:43:43.672Z,3.10
2019-06-27T07:48:39.552Z,3.17
2019-06-27T07:53:36.106Z,3.60
2019-06-27T07:58:32.618Z,3.37
2019-06-27T08:03:28.304Z,3.05
2019-06-27T08:08:23.656Z,3.17
2019-06-27T08:13:20.172Z,2.98
2019-06-27T08:18:16.672Z,2.70
2019-06-27T08:23:11.838Z,3.17
2019-06-27T08:28:06.901Z,2.80
2019-06-27T08:33:01.904Z,3.20
2019-06-27T08:37:57.990Z,2.87
2019-06-27T08:42:53.188Z,3.00
2019-06-27T08:47:49.985Z,3.33
2019-06-27T08:52:46.586Z,2.42
2019-06-27T08:57:41.790Z,2.40
2019-06-27T09:02:38.331Z,2.40
2019-06-27T09:07:35.001Z,3.00
2019-06-27T09:12:31.551Z,2.37
2019-06-27T09:17:27.257Z,2.60
2019-06-27T09:22:23.705Z,2.35
2019-06-27T09:27:19.244Z,2.15
2019-06-27T09:32:25.256Z,1.90
2019-06-27T09:37:12.367Z,1.90
2019-06-27T09:42:07.310Z,2.02
2019-06-27T09:47:03.953Z,1.80
2019-06-27T09:51:59.757Z,2.02
2019-06-27T09:56:56.227Z,2.10
2019-06-27T10:01:51.251Z,1.80
2019-06-27T10:06:46.313Z,1.65
2019-06-27T10:11:42.929Z,1.77
2019-06-27T10:16:38.061Z,1.90
2019-06-27T10:21:32.979Z,1.70
2019-06-27T10:26:28.020Z,1.77
2019-06-27T10:31:24.519Z,1.50
2019-06-27T10:36:20.279Z,1.25
2019-06-27T10:41:15.263Z,1.55
2019-06-27T10:46:11.777Z,1.55
2019-06-27T10:51:08.358Z,1.27
2019-06-27T10:56:03.289Z,1.45
2019-06-27T11:00:59.777Z,1.52
2019-06-27T11:05:56.287Z,1.30
2019-06-27T11:10:51.559Z,1.50
2019-06-27T11:15:49.414Z,1.02
2019-06-27T11:20:44.686Z,1.45
2019-06-27T11:25:41.170Z,1.27
2019-06-27T11:30:37.671Z,1.20
2019-06-27T11:35:34.411Z,1.20
2019-06-27T11:40:30.996Z,1.15
2019-06-27T11:45:25.888Z,1.40
2019-06-27T11:50:21.716Z,1.27
2019-06-27T11:55:18.330Z,1.27
2019-06-27T12:00:15.420Z,1.65
2019-06-27T12:05:11.260Z,1.15
2019-06-27T12:10:06.454Z,1.40
2019-06-27T12:15:02.923Z,1.40
2019-06-27T12:19:57.874Z,1.22
2019-06-27T12:24:54.396Z,1.25
2019-06-27T12:29:50.464Z,1.20
2019-06-27T12:34:48.026Z,1.10
2019-06-27T12:39:42.919Z,1.35
2019-06-27T12:44:39.522Z,1.40
2019-06-27T12:49:56.515Z,1.35
2019-06-27T12:54:34.249Z,1.65
2019-06-27T12:59:29.361Z,1.50
2019-06-27T13:04:25.839Z,1.30
2019-06-27T13:09:22.367Z,1.10
2019-06-27T13:14:18.919Z,2.33
2019-06-27T13:19:14.084Z,1.25
2019-06-27T13:24:10.618Z,1.10
2019-06-27T13:29:07.112Z,1.10
2019-06-27T13:34:03.266Z,1.12
2019-06-27T13:38:59.771Z,1.20
2019-06-27T13:43:56.173Z,1.20
2019-06-27T13:48:51.303Z,1.05
2019-06-27T13:53:46.382Z,1.20
2019-06-27T13:58:43.670Z,1.10
2019-06-27T14:03:49.312Z,1.47
2019-06-27T14:08:37.503Z,1.32
2019-06-27T14:13:34.063Z,1.30
2019-06-27T14:18:29.304Z,1.10
2019-06-27T14:23:25.833Z,1.10
2019-06-27T14:28:22.182Z,1.40
2019-06-27T14:33:18.723Z,0.80
2019-06-27T14:38:15.236Z,1.10
2019-06-27T14:43:11.401Z,1.30
2019-06-27T14:48:06.801Z,1.10
2019-06-27T14:53:02.066Z,1.35
2019-06-27T14:57:57.271Z,1.35
2019-06-27T15:02:53.759Z,1.40
2019-06-27T15:07:48.723Z,1.45
2019-06-27T15:12:56.347Z,1.45
2019-06-27T15:17:57.480Z,1.42
2019-06-27T15:22:52.526Z,1.57
2019-06-27T15:27:49.163Z,1.50
2019-06-27T15:33:06.701Z,1.52
2019-06-27T15:38:01.931Z,1.50
2019-06-27T15:42:57.249Z,1.60
2019-06-27T15:48:04.995Z,1.72
2019-06-27T15:52:59.925Z,1.80
2019-06-27T15:57:56.385Z,1.87
2019-06-27T16:02:52.982Z,1.80
2019-06-27T16:07:49.510Z,2.00
2019-06-27T16:12:46.028Z,1.87
2019-06-27T16:17:41.288Z,2.02
2019-06-27T16:22:36.210Z,1.70
2019-06-27T16:27:33.043Z,1.90
2019-06-27T16:32:28.568Z,1.77
2019-06-27T16:37:25.110Z,1.80
2019-06-27T16:42:21.623Z,2.00
2019-06-27T16:47:18.143Z,2.10
2019-06-27T16:52:14.665Z,1.77
2019-06-27T16:57:11.173Z,2.12
2019-06-27T17:02:08.255Z,1.72
2019-06-27T17:07:04.800Z,2.20
2019-06-27T17:12:01.264Z,2.15
2019-06-27T17:16:57.758Z,2.08
2019-06-27T17:21:52.931Z,2.02
2019-06-27T17:26:49.474Z,2.10
2019-06-27T17:31:46.031Z,2.40
2019-06-27T17:36:56.599Z,2.27
2019-06-27T17:41:41.754Z,2.20
2019-06-27T17:46:36.867Z,2.10
2019-06-27T17:51:33.447Z,2.08
2019-06-27T17:56:29.742Z,2.20
2019-06-27T18:01:26.320Z,2.20
2019-06-27T18:06:22.410Z,2.22
2019-06-27T18:11:19.025Z,2.20
2019-06-27T18:16:15.551Z,1.90
2019-06-27T18:21:12.321Z,2.02
2019-06-27T18:26:08.845Z,2.10
2019-06-27T18:31:04.097Z,1.70
2019-06-27T18:36:02.830Z,2.10
2019-06-27T18:40:58.873Z,1.82
2019-06-27T18:45:54.921Z,1.80
2019-06-27T18:50:49.823Z,1.85
2019-06-27T18:55:46.400Z,1.90
2019-06-27T19:00:41.290Z,1.82
2019-06-27T19:05:36.624Z,2.12
2019-06-27T19:10:33.140Z,2.00
2019-06-27T19:15:29.678Z,2.35
2019-06-27T19:20:34.950Z,1.65
2019-06-27T19:25:33.765Z,1.95
2019-06-27T19:30:30.086Z,2.10
2019-06-27T19:35:25.245Z,2.25
2019-06-27T19:40:22.384Z,2.10
2019-06-27T19:45:17.520Z,1.70
2019-06-27T19:50:12.991Z,1.75
2019-06-27T19:55:10.823Z,1.55
2019-06-27T20:00:13.537Z,1.80
2019-06-27T20:05:11.422Z,1.72
2019-06-27T20:10:11.390Z,2.37
2019-06-27T20:15:05.523Z,2.10
2019-06-27T20:20:00.437Z,2.15
2019-06-27T20:24:56.995Z,2.15
2019-06-27T20:29:53.502Z,1.87
2019-06-27T20:34:50.015Z,2.20
2019-06-27T20:39:46.183Z,2.08
2019-06-27T20:44:41.106Z,2.15
2019-06-27T20:49:35.964Z,2.00
2019-06-27T20:54:32.378Z,2.05
2019-06-27T20:59:27.238Z,1.75
2019-06-27T21:04:22.123Z,2.10
2019-06-27T21:09:17.015Z,1.85
2019-06-27T21:14:11.921Z,2.10
2019-06-27T21:19:06.791Z,1.90
2019-06-27T21:24:01.666Z,2.02
2019-06-27T21:28:56.517Z,2.00
2019-06-27T21:33:51.383Z,2.20
2019-06-27T21:38:46.302Z,1.87
2019-06-27T21:43:42.667Z,2.33
2019-06-27T21:48:37.550Z,2.70
2019-06-27T21:53:32.426Z,2.20
2019-06-27T21:58:27.392Z,2.50
2019-06-27T22:03:22.346Z,2.35
2019-06-27T22:08:17.420Z,2.17
2019-06-27T22:13:12.327Z,2.40
2019-06-27T22:18:07.311Z,2.67
2019-06-27T22:23:02.143Z,2.10
2019-06-27T22:27:57.021Z,2.37
2019-06-27T22:32:52.006Z,2.27
2019-06-27T22:38:04.511Z,2.47
2019-06-27T22:43:17.070Z,1.97
2019-06-27T22:48:13.750Z,2.30
2019-06-27T22:53:13.027Z,2.63
2019-06-27T22:58:07.848Z,2.10
2019-06-27T23:03:02.712Z,2.37
2019-06-27T23:07:57.550Z,2.13
2019-06-27T23:12:52.403Z,2.60
2019-06-27T23:17:48.017Z,3.00
2019-06-27T23:22:42.869Z,2.10
2019-06-27T23:27:37.723Z,2.20
2019-06-27T23:32:32.557Z,2.70
2019-06-27T23:37:27.385Z,2.60
2019-06-27T23:42:22.231Z,2.50
2019-06-27T23:47:17.082Z,2.80
2019-06-27T23:52:11.912Z,2.80
2019-06-27T23:57:06.732Z,2.77
